Time;durP1;ratioP1;P1;durP2;ratioP2;P2;SDS_P1;SDS_P2;PMS_P1;PMS_P2;Temp;Humidity;BMP_temperature;BMP_pressure;BME280_temperature;BME280_humidity;BME280_pressure;Samples;Min_cycle;Max_cycle;Signal;HPM_P1;HPM_P2
2023/01/01 00:00:11;;;;;;;26.13;14.23;;;;;;;14.60;100.00;100619.31;5074345;28;20048;-53
2023/01/01 00:02:40;;;;;;;22.23;12.25;;;;;;;14.58;100.00;100615.94;5074134;28;20048;-53
2023/01/01 00:05:08;;;;;;;22.40;12.30;;;;;;;14.54;100.00;100619.84;5074034;28;20086;-53
2023/01/01 00:07:36;;;;;;;22.27;12.15;;;;;;;14.56;100.00;100609.97;5078630;28;20105;-53
2023/01/01 00:10:28;;;;;;;16.92;10.32;;;;;;;14.63;100.00;100611.16;5090366;28;20043;-52
2023/01/01 00:12:57;;;;;;;20.38;9.90;;;;;;;14.64;100.00;100607.53;5083050;28;20098;-61
2023/01/01 00:15:27;;;;;;;18.90;9.65;;;;;;;14.64;100.00;100614.63;5073808;28;20093;-60
2023/01/01 00:17:56;;;;;;;18.15;9.77;;;;;;;14.63;100.00;100621.72;5074094;28;20110;-61
2023/01/01 00:20:25;;;;;;;20.13;9.32;;;;;;;14.59;100.00;100622.94;5070733;28;20045;-60
2023/01/01 00:23:00;;;;;;;16.63;7.57;;;;;;;14.65;100.00;100611.00;5069932;28;20508;-60
2023/01/01 00:25:29;;;;;;;18.65;8.23;;;;;;;14.57;100.00;100608.97;5068078;28;20123;-60
2023/01/01 00:27:57;;;;;;;16.60;6.82;;;;;;;14.62;100.00;100605.97;5061696;28;20063;-60
2023/01/01 00:30:27;;;;;;;16.52;6.15;;;;;;;14.67;100.00;100614.34;5072255;28;20519;-60
2023/01/01 00:32:55;;;;;;;13.75;6.80;;;;;;;14.64;100.00;100628.72;5060394;28;20048;-60
2023/01/01 00:35:24;;;;;;;11.73;5.43;;;;;;;14.68;100.00;100621.31;5050824;28;20051;-60
2023/01/01 00:37:53;;;;;;;14.48;5.82;;;;;;;14.72;99.82;100635.97;5065938;28;20044;-60
2023/01/01 00:40:22;;;;;;;14.65;5.45;;;;;;;14.74;99.53;100622.59;5070240;28;20044;-60
2023/01/01 00:42:50;;;;;;;13.55;4.85;;;;;;;14.72;100.00;100613.97;5072256;28;20138;-60
2023/01/01 00:45:18;;;;;;;15.75;4.78;;;;;;;14.72;100.00;100620.09;5073445;28;20052;-54
2023/01/01 00:47:52;;;;;;;12.82;3.75;;;;;;;14.74;100.00;100622.59;5067149;28;20056;-52
2023/01/01 00:50:22;;;;;;;15.38;4.15;;;;;;;14.66;100.00;100618.81;5070888;28;20044;-53
2023/01/01 00:52:50;;;;;;;12.15;3.90;;;;;;;14.57;100.00;100608.97;5073421;28;20048;-54
2023/01/01 00:55:18;;;;;;;8.82;3.58;;;;;;;14.49;100.00;100625.53;5072000;28;20044;-59
2023/01/01 00:57:46;;;;;;;13.38;4.00;;;;;;;14.43;100.00;100627.84;5073282;28;20051;-60
2023/01/01 01:00:16;;;;;;;12.85;3.97;;;;;;;14.41;100.00;100632.44;5073188;28;20075;-51
2023/01/01 01:02:44;;;;;;;12.20;3.55;;;;;;;14.42;100.00;100647.34;5071117;28;20036;-52
2023/01/01 01:05:13;;;;;;;12.98;3.83;;;;;;;14.40;100.00;100633.38;5070048;28;20519;-51
2023/01/01 01:07:42;;;;;;;13.30;3.55;;;;;;;14.39;100.00;100635.22;5070708;28;20051;-52
2023/01/01 01:10:11;;;;;;;13.68;3.45;;;;;;;14.43;100.00;100636.63;5072800;28;20052;-53
2023/01/01 01:12:40;;;;;;;9.73;3.20;;;;;;;14.45;100.00;100631.19;5072913;28;20056;-53
2023/01/01 01:15:09;;;;;;;9.88;3.20;;;;;;;14.42;100.00;100636.75;5073298;28;20487;-54
2023/01/01 01:17:37;;;;;;;11.40;3.83;;;;;;;14.43;100.00;100646.38;5072588;28;20067;-52
2023/01/01 01:20:07;;;;;;;9.77;2.90;;;;;;;14.40;100.00;100638.69;5072788;28;20046;-53
2023/01/01 01:22:36;;;;;;;12.18;2.40;;;;;;;14.48;98.43;100660.03;5072690;28;20476;-53
2023/01/01 01:25:06;;;;;;;10.07;3.22;;;;;;;14.46;99.38;100648.75;5069946;28;20067;-52
2023/01/01 01:27:34;;;;;;;10.80;2.70;;;;;;;14.47;98.94;100655.72;5069883;28;20056;-53
2023/01/01 01:30:03;;;;;;;10.85;2.97;;;;;;;14.47;98.52;100650.44;5072853;28;20986;-53
2023/01/01 01:32:31;;;;;;;10.57;2.80;;;;;;;14.45;98.92;100677.03;5072559;28;20048;-52
2023/01/01 01:34:59;;;;;;;12.88;2.65;;;;;;;14.46;98.89;100675.22;5072578;28;20484;-52
2023/01/01 01:37:28;;;;;;;11.70;2.70;;;;;;;14.42;99.59;100661.41;5072196;28;20406;-51
2023/01/01 01:39:58;;;;;;;8.20;2.38;;;;;;;14.37;100.00;100660.97;5069470;28;20052;-53
2023/01/01 01:42:26;;;;;;;10.73;2.20;;;;;;;14.35;100.00;100658.41;5069961;28;20047;-60
2023/01/01 01:44:58;;;;;;;8.50;2.42;;;;;;;14.34;100.00;100659.41;5072311;28;20083;-60
2023/01/01 01:47:31;;;;;;;7.28;2.22;;;;;;;14.32;98.95;100671.09;5072358;28;20502;-60
2023/01/01 01:50:06;;;;;;;12.10;2.35;;;;;;;14.32;99.35;100671.91;5072323;28;20065;-60
2023/01/01 01:52:36;;;;;;;9.40;2.70;;;;;;;14.32;99.52;100657.88;5072362;28;20078;-60
2023/01/01 01:55:09;;;;;;;8.38;2.10;;;;;;;14.31;97.85;100664.94;5072466;28;20044;-60
2023/01/01 01:57:40;;;;;;;8.85;2.33;;;;;;;14.35;98.00;100686.69;5070328;28;20036;-59
2023/01/01 02:00:09;;;;;;;8.85;2.35;;;;;;;14.37;97.10;100668.91;5068912;28;20048;-52
2023/01/01 02:02:48;;;;;;;8.73;2.58;;;;;;;14.37;97.35;100680.31;5071621;28;20068;-60
2023/01/01 02:05:18;;;;;;;8.65;2.15;;;;;;;14.37;96.56;100692.72;5072314;28;20430;-59
2023/01/01 02:07:47;;;;;;;9.13;1.90;;;;;;;14.45;95.09;100695.56;5070787;28;20056;-60
2023/01/01 02:10:16;;;;;;;8.52;2.08;;;;;;;14.43;96.29;100692.19;5069246;28;20049;-60
2023/01/01 02:12:45;;;;;;;12.98;2.30;;;;;;;14.40;95.52;100691.59;5071334;28;20538;-60
2023/01/01 02:15:13;;;;;;;12.25;2.67;;;;;;;14.35;98.17;100692.81;5073469;28;20049;-60
2023/01/01 02:17:55;;;;;;;8.27;2.05;;;;;;;14.36;95.15;100699.78;5072139;28;20079;-60
2023/01/01 02:20:33;;;;;;;10.90;2.25;;;;;;;14.36;96.00;100691.03;5075100;28;20044;-60
2023/01/01 02:23:35;;;;;;;9.02;1.92;;;;;;;14.41;95.93;100709.16;5076101;28;20040;-60
2023/01/01 02:26:24;;;;;;;9.18;2.30;;;;;;;14.35;95.53;100716.63;5075576;28;20055;-60
2023/01/01 02:29:01;;;;;;;11.20;2.63;;;;;;;14.35;96.20;100713.97;5059252;28;20143;-59
2023/01/01 02:31:34;;;;;;;11.60;2.58;;;;;;;14.31;96.33;100728.41;5075629;28;20079;-59
2023/01/01 02:34:07;;;;;;;7.03;2.10;;;;;;;14.30;97.30;100729.41;5076141;28;20081;-60
2023/01/01 02:36:41;;;;;;;8.38;2.30;;;;;;;14.28;97.32;100728.69;5075965;28;20048;-59
2023/01/01 02:39:10;;;;;;;8.40;2.22;;;;;;;14.27;96.89;100711.13;5075977;28;20379;-60
2023/01/01 02:41:41;;;;;;;7.75;2.08;;;;;;;14.26;96.25;100706.81;5075958;28;20128;-59
2023/01/01 02:44:11;;;;;;;7.65;2.25;;;;;;;14.25;96.90;100715.72;5075710;28;20094;-60
2023/01/01 02:46:39;;;;;;;9.60;2.05;;;;;;;14.29;95.09;100719.78;5075908;28;20502;-59
2023/01/01 02:49:07;;;;;;;8.77;2.13;;;;;;;14.24;94.98;100713.22;5073233;28;20056;-59
2023/01/01 02:51:50;;;;;;;10.13;2.53;;;;;;;14.22;95.20;100721.28;5070915;28;20749;-60
2023/01/01 02:54:31;;;;;;;7.47;2.00;;;;;;;14.23;94.85;100725.56;5074776;28;20090;-60
2023/01/01 02:57:06;;;;;;;8.95;2.22;;;;;;;14.24;93.41;100721.16;5075571;28;20048;-59
2023/01/01 03:02:42;;;;;;;8.38;2.30;;;;;;;14.25;92.75;100723.66;5075543;28;20048;-60
2023/01/01 03:05:24;;;;;;;5.85;1.75;;;;;;;14.24;93.19;100735.19;5072752;28;20105;-60
2023/01/01 03:08:02;;;;;;;7.60;1.83;;;;;;;14.21;93.02;100735.47;5071867;28;20079;-52
2023/01/01 03:10:39;;;;;;;6.25;1.92;;;;;;;14.16;93.12;100732.34;5075150;28;20055;-51
2023/01/01 03:13:14;;;;;;;8.13;1.90;;;;;;;14.17;91.43;100741.97;5075324;28;20058;-53
2023/01/01 03:15:50;;;;;;;5.88;2.08;;;;;;;14.17;90.87;100736.69;5075297;28;20487;-52
2023/01/01 03:18:23;;;;;;;8.90;2.45;;;;;;;14.17;90.20;100739.31;5074945;28;20044;-52
2023/01/01 03:20:55;;;;;;;6.68;2.28;;;;;;;14.13;90.29;100733.44;5073110;28;20052;-51
2023/01/01 03:23:27;;;;;;;10.20;1.97;;;;;;;14.15;90.18;100730.66;5071735;28;20044;-52
2023/01/01 03:26:01;;;;;;;13.80;2.40;;;;;;;14.14;89.40;100737.75;5073880;28;20056;-52
2023/01/01 03:28:35;;;;;;;9.07;2.22;;;;;;;14.19;88.07;100740.00;5074319;28;20074;-52
2023/01/01 03:31:06;;;;;;;10.48;2.03;;;;;;;14.13;88.02;100736.06;5072627;28;20055;-61
2023/01/01 03:33:38;;;;;;;6.95;2.10;;;;;;;14.09;89.34;100736.47;5071313;28;20436;-60
2023/01/01 03:36:09;;;;;;;;;;;;;;;14.13;88.12;100732.59;5075210;28;20086;-60
2023/01/01 03:38:42;;;;;;;9.82;1.98;;;;;;;14.09;89.41;100744.41;5075276;28;19924;-60
2023/01/01 03:41:16;;;;;;;6.60;1.80;;;;;;;14.07;90.11;100752.47;5072583;28;20762;-53
2023/01/01 03:43:51;;;;;;;9.23;2.05;;;;;;;14.05;89.12;100746.44;5071226;28;20142;-51
2023/01/01 03:46:25;;;;;;;6.55;1.67;;;;;;;14.07;89.05;100749.81;5073399;28;20404;-53
2023/01/01 03:48:57;;;;;;;9.68;2.33;;;;;;;14.01;89.96;100743.19;5074473;28;20052;-50
2023/01/01 03:51:45;;;;;;;8.75;1.90;;;;;;;13.99;90.79;100746.97;5074690;28;20048;-53
2023/01/01 03:54:25;;;;;;;7.57;1.73;;;;;;;13.91;90.97;100744.91;5073372;28;20434;-53
2023/01/01 03:56:59;;;;;;;7.05;2.13;;;;;;;13.92;91.41;100746.63;5074711;28;20052;-52
2023/01/01 03:59:34;;;;;;;13.80;2.22;;;;;;;13.91;90.69;100744.91;5074440;28;20056;-53
2023/01/01 04:02:07;;;;;;;7.32;2.13;;;;;;;13.88;91.06;100760.19;5074432;28;20048;-52
2023/01/01 04:04:38;;;;;;;8.75;1.90;;;;;;;13.88;90.36;100758.41;5074400;28;20074;-60
2023/01/01 04:07:06;;;;;;;10.13;2.13;;;;;;;13.87;91.71;100772.56;5074378;28;20044;-60
2023/01/01 04:09:50;;;;;;;7.65;2.10;;;;;;;13.85;92.02;100777.97;5071043;28;20045;-59
2023/01/01 04:12:20;;;;;;;9.80;2.38;;;;;;;13.85;91.45;100771.84;5071877;28;20098;-60
2023/01/01 04:14:48;;;;;;;8.15;1.77;;;;;;;13.80;92.44;100772.22;5074173;28;20099;-60
2023/01/01 04:17:17;;;;;;;9.75;1.98;;;;;;;13.81;92.19;100765.13;5074370;28;20523;-60
2023/01/01 04:19:45;;;;;;;7.68;1.70;;;;;;;13.83;93.15;100771.97;5074309;28;20114;-51
2023/01/01 04:22:22;;;;;;;9.52;1.75;;;;;;;13.78;93.08;100776.78;5073954;28;20053;-60
2023/01/01 04:24:50;;;;;;;7.70;2.00;;;;;;;13.82;93.63;100774.72;5073960;28;20048;-59
2023/01/01 04:27:19;;;;;;;5.57;1.65;;;;;;;13.85;93.09;100774.47;5072903;28;20082;-60
2023/01/01 04:29:47;;;;;;;7.28;2.00;;;;;;;13.77;94.57;100768.97;5071838;28;20515;-60
2023/01/01 04:32:16;;;;;;;6.30;1.60;;;;;;;13.76;95.26;100768.13;5069562;28;20041;-59
2023/01/01 04:34:44;;;;;;;4.90;1.60;;;;;;;13.76;94.85;100770.78;5072824;28;20041;-60
2023/01/01 04:37:13;;;;;;;7.13;1.60;;;;;;;13.77;96.00;100790.97;5073854;28;20094;-59
2023/01/01 04:39:41;;;;;;;5.75;1.30;;;;;;;13.77;96.45;100787.47;5073230;28;20045;-60
2023/01/01 04:42:10;;;;;;;5.57;1.58;;;;;;;13.75;97.19;100789.41;5073125;28;20064;-59
2023/01/01 04:44:38;;;;;;;6.13;1.50;;;;;;;13.75;97.10;100782.31;5071544;28;20515;-59
2023/01/01 04:47:06;;;;;;;10.00;2.00;;;;;;;13.72;98.43;100779.91;5069773;28;20102;-59
2023/01/01 04:49:38;;;;;;;6.43;1.70;;;;;;;13.72;98.21;100787.03;5069406;28;20475;-59
2023/01/01 04:52:06;;;;;;;8.98;1.70;;;;;;;13.75;97.60;100797.34;5073555;28;20036;-52
2023/01/01 04:54:34;;;;;;;7.95;1.60;;;;;;;13.78;97.90;100802.38;5073357;28;20052;-51
2023/01/01 04:57:02;;;;;;;9.13;2.10;;;;;;;13.77;98.45;100798.03;5070671;28;20048;-52
2023/01/01 04:59:31;;;;;;;7.47;1.83;;;;;;;13.72;97.95;100814.28;5069970;28;20151;-51
2023/01/01 05:01:59;;;;;;;8.15;1.92;;;;;;;13.71;98.74;100827.63;5072604;28;20041;-50
2023/01/01 05:04:27;;;;;;;10.18;1.85;;;;;;;13.73;99.20;100817.75;5072139;28;20094;-53
2023/01/01 05:06:57;;;;;;;5.28;1.48;;;;;;;13.75;99.45;100818.47;5069834;28;20045;-52
2023/01/01 05:09:25;;;;;;;8.00;1.65;;;;;;;13.67;100.00;100825.22;5071414;28;20040;-52
2023/01/01 05:11:54;;;;;;;9.93;2.00;;;;;;;13.63;100.00;100833.50;5073076;28;20040;-53
2023/01/01 05:14:23;;;;;;;8.30;2.00;;;;;;;13.62;100.00;100840.59;5072831;28;20040;-53
2023/01/01 05:16:53;;;;;;;9.63;1.67;;;;;;;13.57;100.00;100831.34;5071690;28;20101;-51
2023/01/01 05:19:21;;;;;;;5.00;1.50;;;;;;;13.60;100.00;100850.41;5069890;28;20048;-53
2023/01/01 05:21:49;;;;;;;6.82;1.85;;;;;;;13.62;100.00;100851.16;5071252;28;20041;-53
2023/01/01 05:24:18;;;;;;;11.48;1.73;;;;;;;13.60;100.00;100849.59;5072796;28;20036;-52
2023/01/01 05:26:47;;;;;;;7.32;1.63;;;;;;;13.65;100.00;100861.47;5069776;28;20131;-59
2023/01/01 05:29:15;;;;;;;8.25;1.80;;;;;;;13.61;100.00;100844.19;5069980;28;20080;-59
2023/01/01 05:31:45;;;;;;;8.63;1.80;;;;;;;13.61;100.00;100833.63;5072971;28;20547;-59
2023/01/01 05:34:14;;;;;;;8.50;1.67;;;;;;;13.60;100.00;100846.94;5072768;28;20049;-51
2023/01/01 05:36:42;;;;;;;8.88;1.95;;;;;;;13.63;100.00;100852.00;5071390;28;20496;-52
2023/01/01 05:39:12;;;;;;;7.55;1.98;;;;;;;13.61;100.00;100875.88;5072693;28;20048;-52
2023/01/01 05:41:42;;;;;;;7.78;1.98;;;;;;;13.57;100.00;100878.91;5072204;28;20052;-52
2023/01/01 05:44:10;;;;;;;8.25;1.83;;;;;;;13.52;100.00;100879.25;5069781;28;20135;-52
2023/01/01 05:46:39;;;;;;;6.68;1.70;;;;;;;13.52;100.00;100882.75;5070211;28;20440;-53
2023/01/01 05:49:10;;;;;;;9.13;1.67;;;;;;;13.52;100.00;100888.03;5070205;28;20056;-53
2023/01/01 05:51:38;;;;;;;6.35;1.60;;;;;;;13.50;100.00;100889.94;5071648;28;20040;-53
2023/01/01 05:54:06;;;;;;;8.07;2.13;;;;;;;13.44;100.00;100910.69;5071794;28;20041;-54
2023/01/01 05:56:34;;;;;;;9.23;1.77;;;;;;;13.45;100.00;100907.94;5071866;28;20495;-54
2023/01/01 05:59:03;;;;;;;9.18;1.88;;;;;;;13.42;100.00;100892.31;5071916;28;20559;-51
2023/01/01 06:01:32;;;;;;;7.43;2.20;;;;;;;13.38;100.00;100895.31;5068921;28;20045;-53
2023/01/01 06:04:00;;;;;;;9.32;1.73;;;;;;;13.34;100.00;100895.50;5068897;28;20542;-51
2023/01/01 06:06:31;;;;;;;10.10;2.10;;;;;;;13.33;100.00;100907.06;5071293;28;20047;-50
2023/01/01 06:09:03;;;;;;;8.18;1.70;;;;;;;13.28;100.00;100911.84;5072390;28;20119;-52
2023/01/01 06:11:32;;;;;;;7.07;1.70;;;;;;;13.28;100.00;100918.88;5072346;28;20124;-59
2023/01/01 06:14:01;;;;;;;7.47;1.80;;;;;;;13.22;100.00;100928.13;5072149;28;20048;-60
2023/01/01 06:16:31;;;;;;;10.20;1.95;;;;;;;13.19;100.00;100929.19;5072228;28;20047;-60
2023/01/01 06:19:00;;;;;;;6.13;1.52;;;;;;;13.20;100.00;100953.81;5070892;28;20051;-59
2023/01/01 06:21:29;;;;;;;6.50;1.50;;;;;;;13.18;100.00;100958.34;5071514;28;20049;-59
2023/01/01 06:23:59;;;;;;;4.63;1.30;;;;;;;13.17;100.00;100970.72;5067561;28;20056;-59
2023/01/01 06:26:29;;;;;;;7.47;1.65;;;;;;;13.25;100.00;100975.44;5070704;28;20036;-59
2023/01/01 06:28:58;;;;;;;7.68;1.25;;;;;;;13.19;100.00;100979.38;5072048;28;20041;-59
2023/01/01 06:31:28;;;;;;;7.70;1.45;;;;;;;13.11;100.00;100981.72;5071457;28;20045;-59
2023/01/01 06:33:57;;;;;;;6.50;1.80;;;;;;;13.08;100.00;100981.97;5071557;28;20561;-59
2023/01/01 06:36:27;;;;;;;6.40;1.80;;;;;;;13.07;100.00;100976.81;5071662;28;20050;-59
2023/01/01 06:38:57;;;;;;;5.15;1.35;;;;;;;13.02;100.00;100977.16;5072739;28;20118;-59
2023/01/01 06:41:27;;;;;;;6.53;1.50;;;;;;;13.04;100.00;100983.16;5068809;28;20044;-59
2023/01/01 06:43:55;;;;;;;7.15;1.20;;;;;;;13.04;100.00;101011.34;5068675;28;20049;-59
2023/01/01 06:46:25;;;;;;;5.60;1.35;;;;;;;12.97;100.00;101013.59;5071732;28;20075;-59
2023/01/01 06:48:55;;;;;;;7.53;1.50;;;;;;;12.96;100.00;101012.75;5072023;28;20411;-59
2023/01/01 06:51:27;;;;;;;5.22;1.33;;;;;;;12.95;100.00;101020.78;5072289;28;20139;-59
2023/01/01 06:53:58;;;;;;;6.97;1.50;;;;;;;12.90;100.00;101029.03;5072065;28;20051;-59
2023/01/01 06:56:27;;;;;;;8.35;1.60;;;;;;;12.89;100.00;101031.78;5072045;28;20051;-59
2023/01/01 06:58:55;;;;;;;3.95;1.50;;;;;;;12.79;100.00;101037.72;5072009;28;20041;-59
2023/01/01 07:01:25;;;;;;;10.48;1.60;;;;;;;12.75;100.00;101051.22;5073339;28;20056;-59
2023/01/01 07:03:55;;;;;;;5.57;1.10;;;;;;;12.66;100.00;101061.47;5075740;28;20059;-59
2023/01/01 07:06:25;;;;;;;3.80;1.20;;;;;;;12.56;97.87;101063.09;5075423;28;20064;-59
2023/01/01 07:08:53;;;;;;;5.18;0.90;;;;;;;12.58;97.81;101082.28;5075555;28;20131;-59
2023/01/01 07:11:23;;;;;;;3.03;0.73;;;;;;;12.52;99.30;101078.28;5075403;28;20447;-59
2023/01/01 07:13:51;;;;;;;2.15;0.70;;;;;;;12.42;100.00;101071.13;5075435;28;20048;-52
2023/01/01 07:16:19;;;;;;;6.22;0.90;;;;;;;12.35;100.00;101078.59;5075120;28;20039;-59
2023/01/01 07:18:50;;;;;;;4.00;0.90;;;;;;;12.42;100.00;101086.94;5073304;28;20076;-59
2023/01/01 07:21:28;;;;;;;4.18;0.80;;;;;;;12.31;100.00;101090.31;5072460;28;20036;-59
2023/01/01 07:23:58;;;;;;;4.53;0.70;;;;;;;12.31;100.00;101080.63;5073060;28;20052;-59
2023/01/01 07:26:28;;;;;;;5.78;0.82;;;;;;;12.28;100.00;101090.53;5072159;28;20048;-59
2023/01/01 07:28:56;;;;;;;6.15;1.10;;;;;;;12.13;100.00;101095.06;5073170;28;20071;-59
2023/01/01 07:31:34;;;;;;;6.85;1.42;;;;;;;12.02;100.00;101105.50;5075055;28;20051;-59
2023/01/01 07:34:02;;;;;;;5.88;1.35;;;;;;;12.02;100.00;101111.59;5074904;28;20497;-58
2023/01/01 07:36:32;;;;;;;5.88;1.13;;;;;;;11.89;100.00;101114.19;5074834;28;20369;-58
2023/01/01 07:39:00;;;;;;;4.57;1.00;;;;;;;11.88;100.00;101120.41;5074132;28;20056;-58
2023/01/01 07:41:28;;;;;;;5.53;1.38;;;;;;;11.86;100.00;101121.44;5072105;28;20040;-57
2023/01/01 07:43:56;;;;;;;4.03;0.73;;;;;;;11.64;100.00;101134.25;5073593;28;20102;-57
2023/01/01 07:46:24;;;;;;;3.67;0.88;;;;;;;11.63;100.00;101140.44;5074627;28;20040;-58
2023/01/01 07:48:53;;;;;;;5.75;1.00;;;;;;;11.53;100.00;101144.59;5071787;28;20373;-57
2023/01/01 07:51:21;;;;;;;7.35;0.90;;;;;;;11.37;100.00;101143.91;5071789;28;20531;-54
2023/01/01 07:53:50;;;;;;;4.15;1.05;;;;;;;11.37;100.00;101130.75;5074000;28;20504;-57
2023/01/01 07:56:19;;;;;;;6.50;0.90;;;;;;;11.28;100.00;101135.66;5073851;28;20064;-53
2023/01/01 07:58:47;;;;;;;3.40;0.90;;;;;;;11.25;100.00;101150.81;5074633;28;20044;-56
2023/01/01 08:01:15;;;;;;;4.13;1.42;;;;;;;11.21;100.00;101163.31;5074167;28;20046;-53
2023/01/01 08:03:44;;;;;;;4.95;1.05;;;;;;;11.21;100.00;101168.56;5074320;28;20755;-57
2023/01/01 08:06:13;;;;;;;5.95;1.00;;;;;;;11.07;100.00;101164.19;5073916;28;20407;-56
2023/01/01 08:08:41;;;;;;;5.05;1.30;;;;;;;11.13;100.00;101170.84;5073946;28;20498;-57
2023/01/01 08:11:11;;;;;;;2.40;0.90;;;;;;;11.14;100.00;101183.06;5074368;28;20045;-57
2023/01/01 08:13:39;;;;;;;6.05;1.42;;;;;;;11.11;100.00;101188.50;5073613;28;20475;-57
2023/01/01 08:16:07;;;;;;;4.28;1.30;;;;;;;11.08;100.00;101193.97;5070887;28;20469;-57
2023/01/01 08:18:36;;;;;;;4.45;1.00;;;;;;;11.12;100.00;101198.09;5071673;28;20052;-57
2023/01/01 08:21:05;;;;;;;7.70;1.27;;;;;;;11.09;100.00;101185.13;5074257;28;20041;-57
2023/01/01 08:23:33;;;;;;;6.00;1.33;;;;;;;11.11;100.00;101199.03;5073969;28;20052;-57
2023/01/01 08:26:02;;;;;;;5.38;1.20;;;;;;;11.10;100.00;101213.16;5071387;28;20901;-57
2023/01/01 08:28:32;;;;;;;7.35;1.17;;;;;;;11.14;100.00;101220.75;5071409;28;20068;-57
2023/01/01 08:31:00;;;;;;;6.10;1.00;;;;;;;11.05;100.00;101216.06;5073984;28;20518;-57
2023/01/01 08:33:28;;;;;;;4.47;1.20;;;;;;;11.07;100.00;101226.50;5073738;28;20045;-57
2023/01/01 08:35:56;;;;;;;2.85;0.80;;;;;;;11.09;100.00;101227.25;5073921;28;20045;-57
2023/01/01 08:38:24;;;;;;;4.03;1.20;;;;;;;11.07;100.00;101237.00;5074013;28;20056;-57
2023/01/01 08:40:53;;;;;;;5.57;1.25;;;;;;;11.01;100.00;101234.78;5073432;28;20044;-57
2023/01/01 08:43:21;;;;;;;7.57;1.17;;;;;;;11.05;100.00;101239.75;5070746;28;20052;-57
2023/01/01 08:45:50;;;;;;;8.20;1.42;;;;;;;11.08;100.00;101238.72;5071401;28;20051;-57
2023/01/01 08:48:18;;;;;;;6.05;1.38;;;;;;;11.03;100.00;101236.38;5073392;28;20432;-57
2023/01/01 08:50:53;;;;;;;6.03;1.35;;;;;;;11.04;100.00;101245.09;5073597;28;20040;-57
2023/01/01 08:53:21;;;;;;;4.15;1.10;;;;;;;11.02;100.00;101252.25;5069738;28;20516;-57
2023/01/01 08:55:56;;;;;;;4.93;1.10;;;;;;;11.01;100.00;101242.66;5070859;28;20495;-57
2023/01/01 08:58:24;;;;;;;6.40;1.10;;;;;;;11.03;100.00;101238.16;5073591;28;20048;-57
2023/01/01 09:00:54;;;;;;;8.60;1.30;;;;;;;11.01;100.00;101238.25;5071926;28;20048;-57
2023/01/01 09:03:22;;;;;;;7.40;1.38;;;;;;;11.00;100.00;101244.44;5073252;28;20076;-58
2023/01/01 09:05:51;;;;;;;6.85;1.23;;;;;;;11.02;100.00;101241.75;5073083;28;20135;-57
2023/01/01 09:08:20;;;;;;;5.80;1.10;;;;;;;11.02;100.00;101239.09;5073254;28;20416;-57
2023/01/01 09:10:48;;;;;;;5.20;1.00;;;;;;;10.98;100.00;101241.91;5073299;28;20048;-57
2023/01/01 09:13:21;;;;;;;6.68;1.30;;;;;;;11.00;100.00;101252.34;5073144;28;20605;-57
2023/01/01 09:15:49;;;;;;;6.70;1.13;;;;;;;10.97;100.00;101263.88;5073088;28;20403;-57
2023/01/01 09:18:19;;;;;;;7.20;1.40;;;;;;;10.99;100.00;101258.56;5069511;28;20044;-57
2023/01/01 09:20:47;;;;;;;6.53;1.38;;;;;;;11.00;100.00;101260.22;5068585;28;20071;-57
2023/01/01 09:23:15;;;;;;;8.05;1.40;;;;;;;11.04;100.00;101255.63;5072904;28;20048;-57
2023/01/01 09:25:43;;;;;;;5.85;1.30;;;;;;;11.06;100.00;101251.13;5072911;28;20056;-57
2023/01/01 09:28:13;;;;;;;6.43;1.42;;;;;;;11.06;100.00;101248.50;5073052;28;20051;-57
2023/01/01 09:30:41;;;;;;;6.63;1.40;;;;;;;11.06;100.00;101259.03;5072969;28;20568;-57
2023/01/01 09:33:09;;;;;;;11.18;1.70;;;;;;;11.07;100.00;101252.81;5068868;28;20106;-57
2023/01/01 09:35:42;;;;;;;6.55;1.30;;;;;;;11.09;100.00;101261.47;5070413;28;20044;-57
2023/01/01 09:38:11;;;;;;;4.43;1.30;;;;;;;11.05;100.00;101270.50;5071304;28;20052;-59
2023/01/01 09:40:52;;;;;;;10.98;1.63;;;;;;;11.04;100.00;101276.69;5072793;28;20502;-57
2023/01/01 09:43:30;;;;;;;5.63;1.20;;;;;;;11.08;100.00;101275.56;5071941;28;20049;-57
2023/01/01 09:46:01;;;;;;;7.38;1.25;;;;;;;11.10;100.00;101265.81;5072146;28;20098;-57
2023/01/01 09:48:31;;;;;;;9.85;1.50;;;;;;;11.12;100.00;101277.06;5072262;28;20042;-58
2023/01/01 09:51:05;;;;;;;8.88;1.80;;;;;;;11.16;100.00;101275.94;5071332;28;20057;-58
2023/01/01 09:53:43;;;;;;;7.38;1.58;;;;;;;11.10;100.00;101282.44;5072507;28;20055;-58
2023/01/01 09:56:15;;;;;;;8.95;1.40;;;;;;;11.11;100.00;101273.59;5072562;28;20110;-58
2023/01/01 09:58:43;;;;;;;6.72;1.33;;;;;;;11.12;100.00;101275.28;5072501;28;20454;-58
2023/01/01 10:01:33;;;;;;;7.97;1.75;;;;;;;11.16;100.00;101284.69;5072564;28;20079;-58
2023/01/01 10:04:18;;;;;;;6.50;1.30;;;;;;;11.13;100.00;101276.97;5072409;28;20055;-58
2023/01/01 10:06:57;;;;;;;7.13;2.20;;;;;;;11.16;100.00;101297.00;5072497;28;20533;-58
2023/01/01 10:09:31;;;;;;;8.70;1.85;;;;;;;11.18;100.00;101292.50;5070898;28;20353;-58
2023/01/01 10:12:07;;;;;;;8.90;2.08;;;;;;;11.26;100.00;101303.41;5069725;28;20067;-58
2023/01/01 10:14:38;;;;;;;6.13;1.48;;;;;;;11.22;100.00;101308.94;5071913;28;20045;-57
2023/01/01 10:17:15;;;;;;;9.10;2.08;;;;;;;11.20;100.00;101309.03;5072192;28;20044;-58
2023/01/01 10:19:46;;;;;;;11.15;1.70;;;;;;;11.11;100.00;101294.66;5072292;28;20491;-57
2023/01/01 10:22:22;;;;;;;7.93;2.00;;;;;;;11.10;100.00;101292.13;5070770;28;20487;-59
2023/01/01 10:24:56;;;;;;;8.90;1.77;;;;;;;10.95;100.00;101286.84;5068520;28;20080;-59
2023/01/01 10:27:30;;;;;;;11.68;2.00;;;;;;;10.97;100.00;101282.31;5072064;28;20120;-56
2023/01/01 10:30:02;;;;;;;7.72;2.00;;;;;;;10.94;100.00;101300.91;5072410;28;20048;-52
2023/01/01 10:32:33;;;;;;;;;;;;;;;10.83;100.00;101291.03;5072764;28;20352;-49
2023/01/01 10:35:13;;;;;;;7.60;1.43;;;;;;;10.79;100.00;101294.78;5070880;28;19928;-53
2023/01/01 10:37:42;;;;;;;6.43;1.45;;;;;;;10.79;100.00;101294.78;5075738;28;20091;-50
2023/01/01 10:40:16;;;;;;;7.97;1.40;;;;;;;10.67;100.00;101297.28;5074883;28;20040;-51
2023/01/01 10:42:48;;;;;;;5.75;1.50;;;;;;;10.68;100.00;101301.63;5070386;28;20070;-56
2023/01/01 10:45:32;;;;;;;7.15;1.85;;;;;;;10.71;100.00;101294.38;5074483;28;20044;-52
2023/01/01 10:48:18;;;;;;;9.05;1.88;;;;;;;10.66;100.00;101278.00;5074569;28;20060;-57
2023/01/01 10:50:50;;;;;;;6.70;1.80;;;;;;;10.68;100.00;101291.94;5075834;28;20068;-52
2023/01/01 10:53:26;;;;;;;8.67;1.47;;;;;;;10.65;100.00;101298.22;5075840;28;20102;-57
2023/01/01 10:56:06;;;;;;;7.45;1.30;;;;;;;10.65;100.00;101298.22;5076001;28;20048;-53
2023/01/01 10:58:43;;;;;;;8.75;2.20;;;;;;;10.65;100.00;101305.28;5072571;28;20053;-57
2023/01/01 11:01:19;;;;;;;9.20;1.30;;;;;;;10.71;100.00;101311.97;5073896;28;20067;-57
2023/01/01 11:04:17;;;;;;;8.20;1.88;;;;;;;10.63;100.00;101310.63;5076009;28;20045;-57
2023/01/01 11:06:47;;;;;;;4.45;1.25;;;;;;;10.69;100.00;101313.81;5074469;28;20044;-57
2023/01/01 11:09:23;;;;;;;9.52;1.60;;;;;;;10.71;100.00;101320.69;5072969;28;20044;-57
2023/01/01 11:11:57;;;;;;;9.68;1.50;;;;;;;10.64;100.00;101325.47;5073592;28;20076;-56
2023/01/01 11:14:38;;;;;;;7.30;1.83;;;;;;;10.67;100.00;101319.16;5075444;28;20037;-57
2023/01/01 11:17:06;;;;;;;8.63;1.40;;;;;;;10.73;100.00;101328.50;5075284;28;20491;-57
2023/01/01 11:19:37;;;;;;;9.48;1.80;;;;;;;10.71;100.00;101328.59;5075280;28;20059;-57
2023/01/01 11:22:06;;;;;;;9.20;1.65;;;;;;;10.79;100.00;101328.16;5075345;28;20056;-57
2023/01/01 11:24:35;;;;;;;7.32;1.90;;;;;;;10.86;100.00;101334.72;5075568;28;20403;-57
2023/01/01 11:27:18;;;;;;;6.00;1.63;;;;;;;10.87;100.00;101346.13;5071595;28;20106;-57
2023/01/01 11:29:46;;;;;;;7.90;2.17;;;;;;;10.91;100.00;101343.22;5071937;28;20155;-57
2023/01/01 11:32:20;;;;;;;7.78;2.03;;;;;;;10.93;100.00;101337.84;5075343;28;20076;-57
2023/01/01 11:34:57;;;;;;;10.40;2.60;;;;;;;10.96;100.00;101319.25;5073194;28;20147;-57
2023/01/01 11:37:32;;;;;;;7.63;2.17;;;;;;;11.02;100.00;101331.22;5072597;28;20032;-57
2023/01/01 11:40:04;;;;;;;9.32;3.08;;;;;;;10.98;100.00;101320.84;5074775;28;20055;-53